Time;durP1;ratioP1;P1;durP2;ratioP2;P2;SDS_P1;SDS_P2;PMS_P1;PMS_P2;Temp;Humidity;BMP_temperature;BMP_pressure;BME280_temperature;BME280_humidity;BME280_pressure;Samples;Min_cycle;Max_cycle;Signal;HPM_P1;HPM_P2
2023/05/09 00:01:24;;;;;;;139.40;39.65;;;15.90;99.90;;;;;;4913478;29;20245;-77
2023/05/09 00:03:50;;;;;;;125.37;38.30;;;15.90;99.90;;;;;;4914413;29;20214;-77
2023/05/09 00:06:18;;;;;;;122.47;38.28;;;15.90;99.90;;;;;;4919634;29;20229;-76
2023/05/09 00:08:45;;;;;;;132.27;38.80;;;15.90;99.90;;;;;;4913714;29;20663;-76
2023/05/09 00:11:12;;;;;;;129.10;39.53;;;15.80;99.90;;;;;;4913287;29;20218;-77
2023/05/09 00:13:40;;;;;;;139.97;41.50;;;15.80;99.90;;;;;;4913341;29;20297;-77
2023/05/09 00:16:09;;;;;;;125.10;37.17;;;15.80;99.90;;;;;;4919549;29;20222;-77
2023/05/09 00:18:36;;;;;;;132.35;39.72;;;15.80;99.90;;;;;;4916486;29;20230;-76
2023/05/09 00:21:03;;;;;;;135.17;40.27;;;15.80;99.90;;;;;;4916726;29;20264;-75
2023/05/09 00:23:30;;;;;;;150.98;42.85;;;15.80;99.90;;;;;;4909311;29;20265;-77
2023/05/09 00:25:58;;;;;;;155.33;43.33;;;15.70;99.90;;;;;;4917533;29;20317;-75
2023/05/09 00:28:25;;;;;;;143.75;42.25;;;15.80;99.90;;;;;;4917384;29;20253;-75
2023/05/09 00:30:52;;;;;;;152.95;43.35;;;15.70;99.90;;;;;;4916907;29;20316;-76
2023/05/09 00:33:19;;;;;;;158.00;41.53;;;15.70;99.90;;;;;;4916557;29;20261;-78
2023/05/09 00:35:46;;;;;;;155.73;42.33;;;15.70;99.90;;;;;;4917969;29;20202;-77
2023/05/09 00:38:13;;;;;;;154.50;44.80;;;15.80;99.90;;;;;;4915999;29;20214;-76
2023/05/09 00:40:40;;;;;;;157.43;43.90;;;15.90;99.90;;;;;;4919486;29;20208;-76
2023/05/09 00:43:06;;;;;;;161.17;43.10;;;15.90;99.90;;;;;;4916274;29;20296;-79
2023/05/09 00:45:33;;;;;;;143.40;43.15;;;15.90;99.90;;;;;;4917010;29;20702;-76
2023/05/09 00:48:00;;;;;;;151.25;41.50;;;16.00;99.90;;;;;;4916191;29;20296;-76
2023/05/09 00:50:27;;;;;;;161.97;41.73;;;15.90;99.90;;;;;;4916387;29;20727;-76
2023/05/09 00:52:54;;;;;;;150.35;43.00;;;16.00;99.90;;;;;;4915964;29;20209;-76
2023/05/09 00:55:22;;;;;;;148.50;43.40;;;16.00;99.90;;;;;;4916675;29;20246;-75
2023/05/09 00:57:48;;;;;;;154.50;43.97;;;16.00;99.90;;;;;;4917353;29;20220;-76
2023/05/09 01:00:16;;;;;;;149.40;40.63;;;16.00;99.90;;;;;;4915838;29;20236;-76
2023/05/09 01:02:46;;;;;;;152.77;40.88;;;16.00;99.90;;;;;;4917780;29;20304;-77
2023/05/09 01:05:13;;;;;;;133.80;39.55;;;16.00;99.90;;;;;;4919671;29;20671;-77
2023/05/09 01:08:02;;;;;;;137.82;39.25;;;16.00;99.90;;;;;;4911636;29;20206;-75
2023/05/09 01:10:47;;;;;;;138.07;37.90;;;16.00;99.90;;;;;;4915620;29;20554;-78
2023/05/09 01:13:26;;;;;;;138.43;38.47;;;16.00;99.90;;;;;;4913594;29;20832;-76
2023/05/09 01:16:00;;;;;;;150.17;39.83;;;15.90;99.90;;;;;;4918590;29;20312;-76
2023/05/09 01:18:56;;;;;;;139.43;40.33;;;15.90;99.90;;;;;;4890797;29;20321;-76
2023/05/09 01:21:28;;;;;;;141.30;39.23;;;15.90;99.90;;;;;;4915614;29;20216;-77
2023/05/09 01:24:25;;;;;;;148.23;42.53;;;15.80;99.90;;;;;;4913632;29;20209;-75
2023/05/09 01:27:10;;;;;;;153.30;40.45;;;15.80;99.90;;;;;;4912681;29;20752;-77
2023/05/09 01:30:00;;;;;;;149.93;39.78;;;15.80;99.90;;;;;;4915399;29;20358;-76
2023/05/09 01:32:29;;;;;;;155.03;41.70;;;15.80;99.90;;;;;;4912668;29;20234;-77
2023/05/09 01:35:00;;;;;;;160.10;41.40;;;15.80;99.90;;;;;;4917092;29;20209;-77
2023/05/09 01:37:30;;;;;;;160.25;43.28;;;15.90;99.90;;;;;;4911362;29;20210;-77
2023/05/09 01:40:09;;;;;;;167.37;42.57;;;15.90;99.90;;;;;;4915423;29;20285;-77
2023/05/09 01:42:44;;;;;;;164.88;40.40;;;15.90;99.90;;;;;;4916025;29;20264;-76
2023/05/09 01:45:13;;;;;;;158.67;40.70;;;16.00;99.90;;;;;;4912246;29;20308;-76
2023/05/09 01:47:41;;;;;;;166.95;43.20;;;15.90;99.90;;;;;;4913586;29;20685;-76
2023/05/09 01:50:10;;;;;;;145.52;40.15;;;15.90;99.90;;;;;;4915266;29;20218;-77
2023/05/09 01:52:41;;;;;;;160.37;41.50;;;15.90;99.90;;;;;;4918253;29;20305;-76
2023/05/09 01:55:09;;;;;;;150.77;40.27;;;15.90;99.90;;;;;;4916469;29;20201;-77
2023/05/09 01:57:37;;;;;;;142.52;40.92;;;16.00;99.90;;;;;;4913962;29;20722;-76
2023/05/09 02:00:06;;;;;;;163.45;44.72;;;16.00;99.90;;;;;;4915229;29;20218;-77
2023/05/09 02:02:34;;;;;;;163.35;42.00;;;16.00;99.90;;;;;;4916351;29;20564;-77
2023/05/09 02:05:01;;;;;;;154.43;40.42;;;15.90;99.90;;;;;;4917827;29;20221;-76
2023/05/09 02:07:29;;;;;;;160.63;41.70;;;15.90;99.90;;;;;;4913117;29;20234;-77
2023/05/09 02:09:59;;;;;;;157.37;42.83;;;15.90;99.90;;;;;;4914316;29;20215;-78
2023/05/09 02:12:27;;;;;;;157.60;42.22;;;16.00;99.90;;;;;;4898555;29;20233;-76
2023/05/09 02:14:54;;;;;;;159.45;42.58;;;16.00;99.90;;;;;;4917703;29;20225;-76
2023/05/09 02:17:20;;;;;;;149.33;40.00;;;16.00;99.90;;;;;;4918998;29;20210;-75
2023/05/09 02:19:47;;;;;;;150.82;42.35;;;15.90;99.90;;;;;;4915566;29;20264;-76
2023/05/09 02:22:14;;;;;;;169.68;41.78;;;16.00;99.90;;;;;;4916309;29;20297;-76
2023/05/09 02:24:44;;;;;;;166.00;42.38;;;16.00;99.90;;;;;;4916301;29;20270;-77
2023/05/09 02:27:11;;;;;;;164.43;41.88;;;16.00;99.90;;;;;;4916946;29;20214;-77
2023/05/09 02:29:43;;;;;;;166.07;42.25;;;16.00;99.90;;;;;;4914415;29;20308;-77
2023/05/09 02:32:22;;;;;;;164.90;40.67;;;16.00;99.90;;;;;;4915619;29;20726;-77
2023/05/09 02:34:52;;;;;;;175.38;40.60;;;16.10;99.90;;;;;;4917535;29;20261;-77
2023/05/09 02:37:20;;;;;;;156.93;41.83;;;16.10;99.90;;;;;;4913126;29;20646;-77
2023/05/09 02:39:47;;;;;;;144.35;40.03;;;16.10;99.90;;;;;;4911448;29;20682;-77
2023/05/09 02:42:20;;;;;;;151.97;40.90;;;16.10;99.90;;;;;;4914904;29;20301;-77
2023/05/09 02:44:47;;;;;;;145.85;40.45;;;16.10;99.90;;;;;;4914177;29;20722;-75
2023/05/09 02:47:14;;;;;;;142.52;41.17;;;16.10;99.90;;;;;;4917731;29;20237;-76
2023/05/09 02:49:41;;;;;;;157.27;38.80;;;16.10;99.90;;;;;;4913762;29;20305;-75
2023/05/09 02:52:07;;;;;;;137.38;38.95;;;16.10;99.90;;;;;;4917188;29;20217;-76
2023/05/09 02:54:34;;;;;;;152.80;39.40;;;16.10;99.90;;;;;;4914355;29;20210;-77
2023/05/09 02:57:01;;;;;;;144.70;39.05;;;16.10;99.90;;;;;;4916709;29;20300;-76
2023/05/09 02:59:27;;;;;;;139.07;39.63;;;16.10;99.90;;;;;;4913492;29;20692;-77
2023/05/09 03:01:54;;;;;;;139.48;39.38;;;16.00;99.90;;;;;;4913848;29;20224;-76
2023/05/09 03:04:21;;;;;;;142.63;37.65;;;16.10;99.90;;;;;;4913515;29;20213;-77
2023/05/09 03:06:48;;;;;;;137.02;40.17;;;16.10;99.90;;;;;;4912824;29;20605;-77
2023/05/09 03:09:15;;;;;;;140.75;36.97;;;16.10;99.90;;;;;;4914274;29;20213;-77
2023/05/09 03:11:42;;;;;;;141.80;37.13;;;16.10;99.90;;;;;;4911588;29;20233;-77
2023/05/09 03:14:10;;;;;;;144.30;37.22;;;16.10;99.90;;;;;;4909677;29;20226;-76
2023/05/09 03:16:36;;;;;;;151.32;38.47;;;16.10;99.90;;;;;;4916558;29;20701;-76
2023/05/09 03:19:03;;;;;;;144.13;38.65;;;16.10;99.90;;;;;;4911767;29;20254;-76
2023/05/09 03:21:30;;;;;;;141.65;38.42;;;16.10;99.90;;;;;;4911530;29;20213;-77
2023/05/09 03:23:57;;;;;;;137.18;36.58;;;16.10;99.90;;;;;;4913456;29;20205;-76
2023/05/09 03:26:25;;;;;;;135.25;38.80;;;16.10;99.90;;;;;;4917254;29;20305;-76
2023/05/09 03:28:52;;;;;;;147.15;36.78;;;16.10;99.90;;;;;;4913614;29;20213;-76
2023/05/09 03:31:18;;;;;;;145.98;38.33;;;16.10;99.90;;;;;;4912921;29;20297;-76
2023/05/09 03:33:45;;;;;;;147.45;37.42;;;16.10;99.90;;;;;;4913530;29;20214;-75
2023/05/09 03:36:12;;;;;;;129.52;35.13;;;16.00;99.90;;;;;;4909930;29;20204;-77
2023/05/09 03:38:38;;;;;;;135.75;36.85;;;16.00;99.90;;;;;;4913333;29;20618;-76
2023/05/09 03:41:05;;;;;;;129.38;37.50;;;16.00;99.90;;;;;;4913668;29;20289;-77
2023/05/09 03:43:32;;;;;;;132.38;34.92;;;16.00;99.90;;;;;;4913051;29;20738;-76
2023/05/09 03:45:59;;;;;;;137.10;37.35;;;16.00;99.90;;;;;;4906332;29;20261;-77
2023/05/09 03:48:26;;;;;;;133.15;36.17;;;16.00;99.90;;;;;;4901412;29;20209;-76
2023/05/09 03:50:52;;;;;;;126.03;35.92;;;15.90;99.90;;;;;;4914902;29;20227;-76
2023/05/09 03:53:19;;;;;;;121.18;34.72;;;15.90;99.90;;;;;;4917563;29;20257;-77
2023/05/09 03:55:46;;;;;;;132.48;35.33;;;15.90;99.90;;;;;;4913348;29;20644;-76
2023/05/09 03:58:13;;;;;;;130.55;35.55;;;15.90;99.90;;;;;;4916858;29;20245;-76
2023/05/09 04:00:40;;;;;;;110.40;34.58;;;15.90;99.90;;;;;;4916647;29;20317;-77
2023/05/09 04:03:07;;;;;;;116.00;33.60;;;15.90;99.90;;;;;;4914763;29;20214;-76
2023/05/09 04:05:34;;;;;;;124.43;34.33;;;15.90;99.90;;;;;;4914997;29;20968;-78
2023/05/09 04:08:02;;;;;;;105.63;33.00;;;15.90;99.90;;;;;;4918812;29;20237;-76
2023/05/09 04:10:30;;;;;;;125.20;34.83;;;15.90;99.90;;;;;;4916962;29;20300;-76
2023/05/09 04:12:57;;;;;;;106.50;30.45;;;15.90;99.90;;;;;;4916849;29;20316;-76
2023/05/09 04:15:24;;;;;;;111.28;32.92;;;15.90;99.90;;;;;;4919311;29;20226;-76
2023/05/09 04:17:51;;;;;;;114.35;33.67;;;15.80;99.90;;;;;;4922370;29;20329;-76
2023/05/09 04:20:18;;;;;;;109.90;32.38;;;15.80;99.90;;;;;;4916404;29;20224;-76
2023/05/09 04:22:45;;;;;;;102.40;31.75;;;15.80;99.90;;;;;;4916488;29;20678;-74
2023/05/09 04:25:13;;;;;;;107.80;30.42;;;15.80;99.90;;;;;;4916466;29;20210;-76
2023/05/09 04:27:40;;;;;;;102.75;30.30;;;15.80;99.90;;;;;;4916633;29;20249;-76
2023/05/09 04:30:08;;;;;;;110.35;31.02;;;15.80;99.90;;;;;;4915671;29;20228;-76
2023/05/09 04:32:35;;;;;;;115.05;31.20;;;15.80;99.90;;;;;;4919139;29;20217;-76
2023/05/09 04:35:03;;;;;;;116.28;32.95;;;15.80;99.90;;;;;;4915726;29;20731;-75
2023/05/09 04:37:31;;;;;;;101.38;29.33;;;15.80;99.90;;;;;;4916526;29;20288;-79
2023/05/09 04:39:58;;;;;;;114.95;33.25;;;15.70;99.90;;;;;;4916364;29;20698;-76
2023/05/09 04:42:25;;;;;;;98.75;31.02;;;15.80;99.90;;;;;;4916572;29;20214;-76
2023/05/09 04:44:52;;;;;;;108.80;30.27;;;15.70;99.90;;;;;;4916614;29;20232;-76
2023/05/09 04:47:18;;;;;;;108.70;31.40;;;15.80;99.90;;;;;;4917663;29;20252;-76
2023/05/09 04:49:45;;;;;;;103.45;30.88;;;15.70;99.90;;;;;;4916264;29;20280;-77
2023/05/09 04:52:12;;;;;;;105.38;30.00;;;15.70;99.90;;;;;;4915849;29;20312;-76
2023/05/09 04:54:39;;;;;;;105.03;31.93;;;15.70;99.90;;;;;;4919317;29;20637;-76
2023/05/09 04:57:06;;;;;;;101.85;31.15;;;15.70;99.90;;;;;;4916407;29;20221;-76
2023/05/09 04:59:44;;;;;;;109.22;30.33;;;15.70;99.90;;;;;;4915321;29;20220;-77
2023/05/09 05:02:11;;;;;;;95.47;29.73;;;15.70;99.90;;;;;;4911097;29;20297;-77
2023/05/09 05:04:39;;;;;;;92.50;29.70;;;15.70;99.90;;;;;;4896691;29;20619;-75
2023/05/09 05:07:06;;;;;;;103.25;31.50;;;15.70;99.90;;;;;;4913587;29;20229;-76
2023/05/09 05:09:33;;;;;;;96.47;30.15;;;15.70;99.90;;;;;;4910603;29;20230;-76
2023/05/09 05:11:59;;;;;;;100.32;28.98;;;15.70;99.90;;;;;;4915571;29;20210;-78
2023/05/09 05:14:30;;;;;;;98.45;30.02;;;15.80;99.90;;;;;;4913685;29;20218;-76
2023/05/09 05:16:57;;;;;;;97.63;31.00;;;15.70;99.90;;;;;;4915500;29;20547;-77
2023/05/09 05:19:24;;;;;;;96.53;29.02;;;15.80;99.90;;;;;;4917145;29;20289;-76
2023/05/09 05:21:51;;;;;;;94.03;30.15;;;15.80;99.90;;;;;;4909159;29;20301;-76
2023/05/09 05:24:17;;;;;;;93.80;29.65;;;15.80;99.90;;;;;;4913781;29;20210;-77
2023/05/09 05:26:44;;;;;;;87.20;27.98;;;15.90;99.90;;;;;;4913223;29;20726;-78
2023/05/09 05:29:11;;;;;;;87.13;28.73;;;15.90;99.90;;;;;;4912048;29;20285;-76
2023/05/09 05:31:37;;;;;;;80.03;27.85;;;15.90;99.90;;;;;;4914362;29;20210;-76
2023/05/09 05:34:04;;;;;;;73.32;27.42;;;16.00;99.90;;;;;;4917265;29;20210;-77
2023/05/09 05:36:31;;;;;;;76.05;26.60;;;16.00;99.90;;;;;;4915209;29;20220;-75
2023/05/09 05:38:58;;;;;;;77.03;26.40;;;16.00;99.90;;;;;;4916865;29;20726;-76
2023/05/09 05:41:25;;;;;;;81.88;28.02;;;16.10;99.90;;;;;;4908184;29;20202;-77
2023/05/09 05:43:51;;;;;;;72.47;25.60;;;16.10;99.90;;;;;;4915803;29;20309;-76
2023/05/09 05:46:20;;;;;;;81.25;28.33;;;16.10;99.90;;;;;;4907536;29;20623;-77
2023/05/09 05:48:47;;;;;;;74.75;26.45;;;16.20;99.90;;;;;;4918752;29;20265;-75
2023/05/09 05:51:13;;;;;;;66.90;25.63;;;16.30;99.90;;;;;;4918469;29;20577;-75
2023/05/09 05:53:40;;;;;;;61.10;25.08;;;16.30;99.90;;;;;;4918036;29;20218;-77
2023/05/09 05:56:07;;;;;;;62.38;24.80;;;16.30;99.90;;;;;;4917842;29;20248;-75
2023/05/09 05:58:34;;;;;;;66.47;25.15;;;16.30;99.90;;;;;;4918631;29;20202;-76
2023/05/09 06:01:01;;;;;;;69.30;26.33;;;16.30;99.90;;;;;;4912024;29;20232;-77
2023/05/09 06:03:28;;;;;;;68.35;25.20;;;16.40;99.90;;;;;;4914637;29;20201;-76
2023/05/09 06:05:55;;;;;;;69.88;24.73;;;16.40;99.90;;;;;;4914196;29;20735;-75
2023/05/09 06:08:22;;;;;;;63.78;24.13;;;16.50;99.90;;;;;;4911040;29;20240;-76
2023/05/09 06:10:49;;;;;;;60.15;23.73;;;16.50;99.90;;;;;;4909195;29;20782;-77
2023/05/09 06:13:16;;;;;;;61.28;23.20;;;16.60;99.90;;;;;;4913222;29;20202;-76
2023/05/09 06:15:43;;;;;;;63.20;24.35;;;16.70;99.90;;;;;;4908793;29;20305;-77
2023/05/09 06:18:10;;;;;;;57.13;22.60;;;16.70;99.90;;;;;;4910181;29;20337;-75
2023/05/09 06:20:36;;;;;;;58.80;24.85;;;16.80;99.90;;;;;;4914207;29;20218;-77
2023/05/09 06:23:03;;;;;;;53.33;23.65;;;16.80;99.90;;;;;;4914011;29;20679;-76
2023/05/09 06:25:30;;;;;;;59.63;23.60;;;16.90;99.90;;;;;;4917788;29;20205;-76
2023/05/09 06:27:56;;;;;;;55.67;22.48;;;16.90;99.90;;;;;;4894170;29;20235;-76
2023/05/09 06:30:23;;;;;;;48.75;24.15;;;16.90;99.90;;;;;;4914611;29;20313;-75
2023/05/09 06:32:53;;;;;;;57.17;24.75;;;16.90;99.90;;;;;;4914478;29;20292;-75
2023/05/09 06:35:20;;;;;;;57.13;24.30;;;16.90;99.90;;;;;;4909553;29;20198;-78
2023/05/09 06:37:47;;;;;;;54.92;23.23;;;17.00;99.90;;;;;;4913185;29;20245;-76
2023/05/09 06:40:15;;;;;;;57.15;23.45;;;17.00;99.90;;;;;;4909928;29;20221;-76
2023/05/09 06:42:43;;;;;;;50.60;22.27;;;17.10;99.90;;;;;;4909339;29;20213;-76
2023/05/09 06:45:10;;;;;;;52.85;23.90;;;17.10;99.90;;;;;;4913225;29;20244;-76
2023/05/09 06:47:37;;;;;;;57.38;23.20;;;17.20;99.90;;;;;;4912874;29;20246;-76
2023/05/09 06:50:04;;;;;;;55.42;21.75;;;17.30;99.90;;;;;;4913979;29;20252;-76
2023/05/09 06:52:31;;;;;;;49.08;22.15;;;17.40;99.90;;;;;;4917059;29;20205;-75
2023/05/09 06:54:57;;;;;;;46.53;21.23;;;17.50;99.90;;;;;;4917010;29;20249;-76
2023/05/09 06:57:24;;;;;;;41.65;20.60;;;17.70;99.90;;;;;;4913765;29;20206;-76
2023/05/09 06:59:51;;;;;;;42.95;19.42;;;17.80;99.90;;;;;;4914074;29;20225;-77
2023/05/09 07:02:18;;;;;;;38.75;18.27;;;18.00;99.90;;;;;;4913238;29;20561;-75
2023/05/09 07:04:45;;;;;;;37.63;17.80;;;18.10;99.90;;;;;;4913855;29;20244;-76
2023/05/09 07:07:12;;;;;;;37.58;17.25;;;18.20;99.90;;;;;;4914379;29;20707;-76
2023/05/09 07:09:38;;;;;;;36.17;17.70;;;18.30;99.90;;;;;;4913842;29;20233;-77
2023/05/09 07:12:05;;;;;;;35.50;17.13;;;18.30;99.90;;;;;;4914803;29;20292;-76
2023/05/09 07:14:32;;;;;;;38.38;18.27;;;18.30;99.90;;;;;;4913450;29;20308;-77
2023/05/09 07:16:59;;;;;;;33.58;16.75;;;18.40;99.90;;;;;;4914013;29;20214;-77
2023/05/09 07:19:44;;;;;;;35.50;16.70;;;18.40;99.90;;;;;;4913580;29;20238;-76
2023/05/09 07:22:12;;;;;;;28.02;15.10;;;18.30;99.90;;;;;;4913033;29;20210;-75
2023/05/09 07:24:39;;;;;;;28.30;14.88;;;18.30;99.90;;;;;;4914433;29;20306;-76
2023/05/09 07:27:05;;;;;;;28.48;14.77;;;18.20;99.90;;;;;;4913544;29;20770;-76
2023/05/09 07:29:32;;;;;;;30.70;14.88;;;18.30;99.90;;;;;;4913867;29;20284;-75
2023/05/09 07:31:59;;;;;;;32.67;15.57;;;18.30;99.90;;;;;;4915191;29;20210;-76
2023/05/09 07:34:26;;;;;;;28.33;14.82;;;18.20;99.90;;;;;;4913665;29;20221;-76
2023/05/09 07:36:53;;;;;;;26.92;14.48;;;18.30;99.90;;;;;;4913665;29;20305;-75
2023/05/09 07:39:19;;;;;;;32.25;16.13;;;18.30;99.90;;;;;;4890331;29;20636;-76
2023/05/09 07:41:46;;;;;;;30.05;14.52;;;18.30;99.90;;;;;;4913766;29;20264;-75
2023/05/09 07:44:14;;;;;;;28.30;14.90;;;18.30;99.90;;;;;;4913132;29;20281;-76
2023/05/09 07:46:41;;;;;;;32.08;14.80;;;18.40;99.90;;;;;;4913425;29;20305;-76
2023/05/09 07:49:08;;;;;;;26.92;13.88;;;18.40;99.90;;;;;;4913868;29;20237;-77
2023/05/09 07:51:35;;;;;;;25.70;14.43;;;18.40;99.90;;;;;;4909915;29;20317;-76
2023/05/09 07:54:02;;;;;;;24.42;13.80;;;18.40;99.90;;;;;;4914970;29;20202;-76
2023/05/09 07:56:29;;;;;;;27.70;14.13;;;18.40;99.90;;;;;;4904580;29;20202;-76
2023/05/09 07:58:56;;;;;;;26.50;13.35;;;18.40;99.90;;;;;;4892895;29;20221;-76
2023/05/09 08:01:22;;;;;;;23.92;13.70;;;18.50;99.90;;;;;;4913543;29;20734;-76
2023/05/09 08:03:49;;;;;;;21.92;12.13;;;18.50;99.90;;;;;;4913578;29;20241;-77
2023/05/09 08:06:16;;;;;;;24.50;12.82;;;18.50;99.90;;;;;;4913557;29;20586;-77
2023/05/09 08:08:43;;;;;;;22.15;12.10;;;18.60;99.90;;;;;;4898667;29;20657;-76
2023/05/09 08:11:10;;;;;;;19.05;11.82;;;18.60;99.90;;;;;;4916606;29;20269;-76
2023/05/09 08:13:37;;;;;;;23.15;12.65;;;18.70;99.90;;;;;;4911415;29;20684;-76
2023/05/09 08:16:04;;;;;;;19.00;11.65;;;18.70;99.90;;;;;;4913473;29;20313;-76
2023/05/09 08:18:31;;;;;;;21.00;11.73;;;18.80;99.90;;;;;;4913369;29;20241;-75
2023/05/09 08:20:58;;;;;;;22.40;12.25;;;19.00;99.90;;;;;;4909907;29;20214;-76
2023/05/09 08:23:25;;;;;;;22.77;12.13;;;19.10;99.90;;;;;;4913078;29;20638;-76
2023/05/09 08:25:55;;;;;;;22.48;11.95;;;19.30;99.90;;;;;;4913374;29;20233;-76
2023/05/09 08:28:23;;;;;;;22.17;12.77;;;19.40;99.90;;;;;;4914442;29;20325;-76
2023/05/09 08:30:50;;;;;;;20.52;11.10;;;19.50;99.90;;;;;;4915465;29;20222;-76
2023/05/09 08:33:18;;;;;;;16.67;11.13;;;19.60;99.90;;;;;;4912321;29;20268;-76
2023/05/09 08:35:50;;;;;;;18.63;11.00;;;19.60;99.90;;;;;;4914424;29;20209;-76
2023/05/09 08:38:17;;;;;;;18.33;10.57;;;19.60;99.90;;;;;;4897958;29;20575;-76
2023/05/09 08:40:44;;;;;;;16.77;10.30;;;19.60;99.90;;;;;;4916705;29;20242;-76
2023/05/09 08:43:14;;;;;;;19.80;11.82;;;19.70;99.90;;;;;;4916442;29;20221;-76
2023/05/09 08:45:53;;;;;;;16.88;11.27;;;19.70;99.90;;;;;;4916642;29;20665;-76
2023/05/09 08:48:21;;;;;;;21.33;12.15;;;19.90;99.90;;;;;;4916492;29;20285;-76
2023/05/09 08:50:48;;;;;;;19.20;11.30;;;20.00;99.90;;;;;;4900457;29;20205;-76
2023/05/09 08:53:15;;;;;;;18.77;12.00;;;20.10;99.90;;;;;;4892087;29;20701;-77
2023/05/09 08:55:42;;;;;;;18.00;12.30;;;20.20;99.90;;;;;;4914653;29;20225;-76
2023/05/09 08:58:09;;;;;;;18.23;11.40;;;20.30;99.90;;;;;;4916127;29;20269;-76
2023/05/09 09:00:39;;;;;;;18.02;11.00;;;20.40;99.90;;;;;;4918210;29;20221;-77
2023/05/09 09:03:06;;;;;;;18.42;11.07;;;20.50;99.90;;;;;;4896844;29;20217;-76
2023/05/09 09:05:40;;;;;;;18.50;11.05;;;20.50;99.90;;;;;;4907438;29;20202;-76
2023/05/09 09:08:09;;;;;;;22.63;11.90;;;20.50;99.90;;;;;;4916556;29;20241;-76
2023/05/09 09:10:45;;;;;;;17.13;11.50;;;20.60;99.90;;;;;;4916832;29;20217;-77
2023/05/09 09:13:14;;;;;;;19.25;11.75;;;20.40;99.90;;;;;;4916084;29;20259;-76
2023/05/09 09:15:44;;;;;;;17.15;11.10;;;20.30;99.90;;;;;;4915970;29;20261;-76
2023/05/09 09:18:15;;;;;;;18.85;10.88;;;20.20;99.90;;;;;;4915485;29;20806;-75
2023/05/09 09:20:58;;;;;;;20.15;12.30;;;20.20;99.90;;;;;;4915656;29;20619;-77
2023/05/09 09:23:27;;;;;;;19.10;11.73;;;20.30;99.90;;;;;;4914331;29;20622;-77
2023/05/09 09:26:03;;;;;;;17.33;11.85;;;20.20;99.90;;;;;;4916364;29;20253;-77
2023/05/09 09:28:30;;;;;;;17.65;11.70;;;20.00;99.90;;;;;;4894841;29;20278;-76
2023/05/09 09:30:57;;;;;;;22.88;12.30;;;19.80;99.90;;;;;;4917495;29;20321;-76
2023/05/09 09:33:25;;;;;;;20.10;11.93;;;19.70;99.90;;;;;;4915599;29;20621;-77
2023/05/09 09:35:54;;;;;;;18.77;12.38;;;19.60;99.90;;;;;;4915994;29;20249;-77
2023/05/09 09:38:22;;;;;;;18.10;11.68;;;19.40;99.90;;;;;;4891510;29;20694;-76
2023/05/09 09:40:52;;;;;;;17.48;11.75;;;19.40;99.90;;;;;;4917546;29;20237;-77
2023/05/09 09:43:19;;;;;;;21.27;12.55;;;19.30;99.90;;;;;;4905979;29;20226;-76
2023/05/09 09:45:50;;;;;;;18.33;12.48;;;19.30;99.90;;;;;;4905042;29;20387;-77
2023/05/09 09:48:16;;;;;;;18.27;12.15;;;19.30;99.90;;;;;;4915640;29;20312;-77
2023/05/09 09:50:49;;;;;;;19.27;12.02;;;19.30;99.90;;;;;;4914469;29;20309;-77
2023/05/09 09:53:22;;;;;;;18.83;12.60;;;19.40;99.90;;;;;;4896941;29;20226;-77
2023/05/09 09:55:50;;;;;;;19.23;12.77;;;19.40;99.90;;;;;;4916730;29;20202;-78
2023/05/09 09:58:24;;;;;;;21.60;12.98;;;19.50;99.90;;;;;;4915388;29;20675;-78
2023/05/09 10:01:26;;;;;;;18.98;12.32;;;19.50;99.90;;;;;;4915139;29;20305;-77
2023/05/09 10:03:53;;;;;;;23.30;13.18;;;19.40;99.90;;;;;;4847744;29;20216;-76
2023/05/09 10:06:20;;;;;;;17.73;12.98;;;19.30;99.90;;;;;;4902542;29;20214;-77
2023/05/09 10:08:47;;;;;;;20.90;12.48;;;19.10;99.90;;;;;;4914760;29;20718;-77
2023/05/09 10:11:15;;;;;;;23.52;13.60;;;18.90;99.90;;;;;;4905978;29;20210;-77
2023/05/09 10:13:43;;;;;;;19.13;12.68;;;18.60;99.90;;;;;;4889927;29;20627;-76
2023/05/09 10:16:11;;;;;;;20.48;12.45;;;18.50;99.90;;;;;;4910818;29;20230;-76
2023/05/09 10:18:41;;;;;;;18.58;11.98;;;18.20;99.90;;;;;;4891279;29;20294;-76
2023/05/09 10:21:13;;;;;;;16.55;11.45;;;18.20;99.90;;;;;;4915190;29;20294;-77
2023/05/09 10:23:44;;;;;;;19.20;12.05;;;18.10;99.90;;;;;;4914841;29;20273;-77
2023/05/09 10:26:27;;;;;;;16.08;11.95;;;18.10;99.90;;;;;;4898175;29;20302;-76
2023/05/09 10:28:56;;;;;;;16.73;10.90;;;18.20;99.90;;;;;;4914429;29;20657;-77
2023/05/09 10:31:27;;;;;;;15.00;9.88;;;18.40;99.90;;;;;;4896447;29;20194;-76
2023/05/09 10:33:54;;;;;;;12.98;8.73;;;18.70;99.90;;;;;;4914852;29;20213;-79
2023/05/09 10:36:24;;;;;;;14.85;8.70;;;19.00;99.90;;;;;;4914869;29;20456;-76
2023/05/09 10:38:54;;;;;;;11.20;8.63;;;19.20;99.90;;;;;;4911665;29;20320;-78
2023/05/09 10:41:22;;;;;;;11.38;8.90;;;19.20;99.90;;;;;;4914991;29;20243;-76
2023/05/09 10:43:49;;;;;;;11.95;7.32;;;19.30;99.90;;;;;;4916759;29;20312;-77
2023/05/09 10:46:16;;;;;;;9.82;6.80;;;19.40;99.90;;;;;;4890458;29;20241;-76
2023/05/09 10:48:48;;;;;;;8.43;6.60;;;19.60;99.90;;;;;;4914251;29;20313;-76
2023/05/09 10:51:16;;;;;;;7.10;5.60;;;19.70;99.90;;;;;;4914710;29;20213;-76
2023/05/09 10:53:45;;;;;;;8.23;5.95;;;19.70;99.90;;;;;;4914864;29;20663;-77
2023/05/09 10:56:26;;;;;;;8.07;6.25;;;19.40;99.90;;;;;;4899427;29;20643;-78
2023/05/09 10:58:53;;;;;;;9.23;6.07;;;19.40;99.90;;;;;;4902226;29;20218;-78
2023/05/09 11:01:35;;;;;;;8.07;6.20;;;19.40;99.90;;;;;;4897988;29;20217;-77
2023/05/09 11:04:15;;;;;;;8.20;6.40;;;19.50;99.90;;;;;;4911847;29;20702;-78
2023/05/09 11:06:49;;;;;;;6.47;5.47;;;19.50;99.90;;;;;;4913769;29;20691;-78
2023/05/09 11:09:37;;;;;;;7.80;5.90;;;19.50;99.90;;;;;;5116454;27;21079;-78
2023/05/09 11:12:04;;;;;;;10.25;5.43;;;19.50;99.90;;;;;;5115627;28;20206;-77
2023/05/09 11:14:34;;;;;;;9.68;5.65;;;19.40;99.90;;;;;;5113868;28;20620;-77
2023/05/09 11:17:04;;;;;;;7.47;5.50;;;19.50;99.90;;;;;;5120615;28;20207;-78
2023/05/09 11:19:46;;;;;;;5.95;5.30;;;19.40;99.90;;;;;;5113455;27;20207;-79
2023/05/09 11:22:21;;;;;;;7.15;5.45;;;19.40;99.90;;;;;;5120084;28;20214;-76
2023/05/09 11:24:50;;;;;;;7.75;5.88;;;19.40;99.90;;;;;;5119758;28;20247;-76
2023/05/09 11:27:23;;;;;;;7.57;5.88;;;19.30;99.90;;;;;;5117692;27;20253;-77
2023/05/09 11:29:58;;;;;;;7.82;6.20;;;19.20;99.90;;;;;;5117386;28;20216;-76
2023/05/09 11:32:31;;;;;;;8.77;6.25;;;19.10;99.90;;;;;;5109739;28;20203;-75
2023/05/09 11:35:13;;;;;;;8.73;6.13;;;19.00;99.90;;;;;;5122240;28;20581;-77
2023/05/09 11:37:59;;;;;;;9.02;5.97;;;18.90;99.90;;;;;;5112278;28;20195;-76
2023/05/09 11:40:27;;;;;;;12.02;6.70;;;18.80;99.90;;;;;;5112534;28;20578;-76
2023/05/09 11:42:55;;;;;;;8.35;6.35;;;18.70;99.90;;;;;;5115479;28;20206;-76
2023/05/09 11:45:26;;;;;;;10.82;6.45;;;18.60;99.90;;;;;;5114489;28;20219;-76
2023/05/09 11:47:53;;;;;;;9.73;6.65;;;18.50;99.90;;;;;;5120254;28;20746;-76
2023/05/09 11:50:20;;;;;;;10.52;7.65;;;18.50;99.90;;;;;;5113104;28;20302;-76
2023/05/09 11:52:48;;;;;;;11.77;7.68;;;18.50;99.90;;;;;;5121857;28;20199;-76
2023/05/09 11:55:17;;;;;;;10.30;7.35;;;18.50;99.90;;;;;;5114395;28;20723;-76
2023/05/09 11:57:48;;;;;;;13.93;7.97;;;18.60;99.90;;;;;;5115763;28;20202;-76
2023/05/09 12:00:20;;;;;;;9.63;7.90;;;18.50;99.90;;;;;;5111306;28;20305;-77
2023/05/09 12:02:48;;;;;;;9.60;7.30;;;18.50;99.90;;;;;;5105398;28;20203;-76
2023/05/09 12:05:17;;;;;;;15.32;7.65;;;18.40;99.90;;;;;;5112841;28;20200;-76
2023/05/09 12:07:45;;;;;;;13.48;8.02;;;18.40;99.90;;;;;;5117420;28;20325;-77
2023/05/09 12:10:18;;;;;;;10.45;7.72;;;18.40;99.90;;;;;;5118171;28;20209;-76
2023/05/09 12:12:49;;;;;;;11.48;7.50;;;18.40;99.90;;;;;;5108300;28;20198;-76
2023/05/09 12:15:17;;;;;;;11.10;7.57;;;18.20;99.90;;;;;;5117504;28;20254;-76
2023/05/09 12:17:46;;;;;;;9.68;7.28;;;17.90;99.90;;;;;;5113838;28;20207;-77
2023/05/09 12:20:17;;;;;;;10.07;6.13;;;17.80;99.90;;;;;;5107698;28;20295;-76
2023/05/09 12:22:51;;;;;;;7.93;6.43;;;17.70;99.90;;;;;;5097071;28;20212;-75
2023/05/09 12:25:18;;;;;;;9.23;5.80;;;17.60;99.90;;;;;;5105052;28;20202;-77
2023/05/09 12:27:44;;;;;;;9.63;5.60;;;17.50;99.90;;;;;;5096949;28;20702;-77
2023/05/09 12:30:14;;;;;;;6.88;5.63;;;17.50;99.90;;;;;;5104268;28;20737;-77
2023/05/09 12:32:42;;;;;;;6.80;5.43;;;17.50;99.90;;;;;;5100002;28;20319;-77
2023/05/09 12:35:09;;;;;;;7.18;5.38;;;17.50;99.90;;;;;;5103210;28;20622;-77